FW5644 Weather Reports


Display with metric or nautical units.
time (UTC)temp
F
wind
direction
speed
MPH
gust
MPH
rain 1hr
in
rain 24hr
in
rain mn
in
humidity
%
barometer
mb
20200221184626 43 153 14.0 0.0 0.00 0.00 0.00 59 1027.7
20200221183049 42 173 14.0 0.0 0.00 0.00 0.00 60 1028.1
20200221181549 41 181 15.0 0.0 0.00 0.00 0.00 61 1028.5
20200221174608 39 169 15.0 0.0 0.00 0.00 0.00 65 1029.0
20200221173115 38 194 15.0 0.0 0.00 0.00 0.00 67 1029.7
20200221171618 37 207 13.0 0.0 0.00 0.00 0.00 69 1029.9
20200221164602 34 185 15.0 0.0 0.00 0.00 0.00 72 1030.2
20200221163024 34 189 14.0 0.0 0.00 0.00 0.00 75 1030.5
20200221161522 32 179 15.0 0.0 0.00 0.00 0.00 76 1030.5
20200221154513 30 198 11.0 0.0 0.00 0.00 0.00 80 1031.5
20200221153036 29 201 10.0 0.0 0.00 0.00 0.00 80 1031.7
20200221151522 28 194 11.0 0.0 0.00 0.00 0.00 82 1031.8
20200221144527 25 179 8.0 0.0 0.00 0.00 0.00 84 1031.9
20200221143012 24 197 10.0 0.0 0.00 0.00 0.00 84 1031.6
20200221141657 23 196 10.0 0.0 0.00 0.00 0.00 85 1031.5
20200221134635 21 172 7.0 0.0 0.00 0.00 0.00 86 1031.8
20200221133124 20 185 6.0 0.0 0.00 0.00 0.00 85 1031.8
20200221131634 20 169 5.0 0.0 0.00 0.00 0.00 85 1031.9
20200221124631 20 169 6.0 0.0 0.00 0.00 0.00 85 1032.3
20200221123126 20 171 6.0 0.0 0.00 0.00 0.00 85 1032.4
20200221121632 20 189 7.0 0.0 0.00 0.00 0.00 84 1032.6
20200221114647 20 192 7.0 0.0 0.00 0.00 0.00 84 1033.1
20200221113158 20 169 6.0 0.0 0.00 0.00 0.00 83 1033.3
20200221111643 20 196 7.0 0.0 0.00 0.00 0.00 83 1033.5
20200221104623 21 194 7.0 0.0 0.00 0.00 0.00 82 1033.6
20200221103055 21 180 8.0 0.0 0.00 0.00 0.00 82 1033.7
20200221101541 21 175 9.0 0.0 0.00 0.00 0.00 83 1033.9
20200221094551 21 190 7.0 0.0 0.00 0.00 0.00 83 1034.3
20200221093159 21 184 6.0 0.0 0.00 0.00 0.00 84 1034.6
20200221084641 20 174 6.0 0.0 0.00 0.00 0.00 84 1035.6
20200221083049 20 175 7.0 0.0 0.00 0.00 0.00 84 1035.9
20200221081542 20 182 7.0 0.0 0.00 0.00 0.00 84 1036.2
20200221074543 21 192 7.0 0.0 0.00 0.00 0.00 84 1036.5
20200221073034 21 184 6.0 0.0 0.00 0.00 0.00 84 1036.8
20200221071546 21 178 3.0 0.0 0.00 0.00 0.00 84 1037.0
20200221064513 20 180 1.0 0.0 0.00 0.00 0.00 84 1037.4
20200221063016 21 180 2.0 0.0 0.00 0.00 0.00 84 1037.5
20200221061523 21 175 4.0 0.0 0.00 0.00 0.00 83 1037.6
20200221054502 22 208 5.0 0.0 0.00 0.00 0.00 81 1037.8
20200221053141 22 193 5.0 0.0 0.00 0.00 0.00 81 1037.9
20200221051559 22 196 5.0 0.0 0.00 0.00 0.00 80 1037.9
20200221044712 21 184 3.0 0.0 0.00 0.00 0.00 82 1038.2
20200221043133 21 181 3.0 0.0 0.00 0.00 0.00 83 1038.5
20200221041558 20 180 3.0 0.0 0.00 0.00 0.00 84 1038.5
20200221034614 20 201 1.0 0.0 0.00 0.00 0.00 85 1038.5
20200221033034 20 205 0.0 0.0 0.00 0.00 0.00 84 1038.5
20200221031533 20 205 0.0 0.0 0.00 0.00 0.00 83 1038.5
20200221024529 21 205 0.0 0.0 0.00 0.00 0.00 82 1038.6
20200221023045 21 205 0.0 0.0 0.00 0.00 0.00 82 1038.6
20200221021521 21 205 0.0 0.0 0.00 0.00 0.00 81 1038.7
20200221014513 22 207 0.0 0.0 0.00 0.00 0.00 79 1039.0
20200221013005 23 207 0.0 0.0 0.00 0.00 0.00 78 1039.1
20200221011634 23 207 0.0 0.0 0.00 0.00 0.00 76 1039.4
20200221004710 24 207 0.0 0.0 0.00 0.00 0.00 75 1039.5
20200221003203 25 207 0.0 0.0 0.00 0.00 0.00 74 1039.5
20200221001611 25 207 1.0 0.0 0.00 0.00 0.00 72 1039.5
20200220234545 27 208 3.0 0.0 0.00 0.00 0.00 69 1039.6
20200220233038 28 212 4.0 0.0 0.00 0.00 0.00 68 1039.6
20200220231547 28 201 4.0 0.0 0.00 0.00 0.00 67 1039.6
20200220224529 29 216 3.0 0.0 0.00 0.00 0.00 65 1039.8
20200220223056 29 204 4.0 0.0 0.00 0.00 0.00 64 1039.9
20200220221608 29 213 3.0 0.0 0.00 0.00 0.00 63 1040.0
20200220214518 29 229 4.0 0.0 0.00 0.00 0.00 62 1040.3
20200220213010 28 216 3.0 0.0 0.00 0.00 0.00 62 1040.3
20200220211504 27 229 4.0 0.0 0.00 0.00 0.00 62 1040.4
20200220204634 27 220 3.0 0.0 0.00 0.00 0.00 67 1040.6
20200220203220 27 214 4.0 0.0 0.00 0.00 0.00 66 1040.8
20200220201658 26 232 4.0 0.0 0.00 0.00 0.00 67 1041.1
20200220194549 25 304 3.0 0.0 0.00 0.00 0.00 68 1041.5
20200220193226 24 244 3.0 0.0 0.00 0.00 0.00 69 1041.8
20200220191615 24 284 2.0 0.0 0.00 0.00 0.00 69 1041.9